Time;durP1;ratioP1;P1;durP2;ratioP2;P2;SDS_P1;SDS_P2;PMS_P1;PMS_P2;Temp;Humidity;BMP_temperature;BMP_pressure;BME280_temperature;BME280_humidity;BME280_pressure;Samples;Min_cycle;Max_cycle;Signal;HPM_P1;HPM_P2
2022/05/17 00:01:19;;;;;;;7.70;4.85;;;;;;;;;;5024500;28;20190;-73
2022/05/17 00:03:45;;;;;;;5.95;5.07;;;;;;;;;;5024960;28;20186;-73
2022/05/17 00:06:11;;;;;;;5.32;4.82;;;;;;;;;;5023478;28;20847;-72
2022/05/17 00:08:39;;;;;;;5.43;4.93;;;;;;;;;;5024087;28;20965;-73
2022/05/17 00:11:06;;;;;;;7.80;5.82;;;;;;;;;;5024062;28;20205;-73
2022/05/17 00:13:32;;;;;;;6.35;5.75;;;;;;;;;;5024924;28;20902;-73
2022/05/17 00:15:59;;;;;;;6.55;5.50;;;;;;;;;;5023030;28;20194;-73
2022/05/17 00:18:25;;;;;;;9.43;6.68;;;;;;;;;;5024511;28;20749;-73
2022/05/17 00:20:51;;;;;;;7.70;6.00;;;;;;;;;;5024586;28;20640;-72
2022/05/17 00:23:19;;;;;;;9.35;6.90;;;;;;;;;;5024508;28;20179;-73
2022/05/17 00:25:47;;;;;;;8.45;6.80;;;;;;;;;;5023353;28;20194;-72
2022/05/17 00:28:14;;;;;;;8.25;6.22;;;;;;;;;;5025455;28;20205;-74
2022/05/17 00:30:41;;;;;;;8.25;6.88;;;;;;;;;;5020504;28;20221;-72
2022/05/17 00:33:07;;;;;;;9.38;6.88;;;;;;;;;;5024414;28;20179;-72
2022/05/17 00:35:33;;;;;;;8.85;6.03;;;;;;;;;;5023122;28;20178;-73
2022/05/17 00:37:59;;;;;;;8.02;6.40;;;;;;;;;;5024290;28;20201;-72
2022/05/17 00:40:26;;;;;;;7.05;6.35;;;;;;;;;;5023879;28;20179;-73
2022/05/17 00:42:52;;;;;;;7.72;6.35;;;;;;;;;;5024763;28;20187;-72
2022/05/17 00:45:18;;;;;;;8.00;6.22;;;;;;;;;;5023345;28;20190;-72
2022/05/17 00:48:04;;;;;;;8.25;6.28;;;;;;;;;;5023165;28;20203;-72
2022/05/17 00:50:30;;;;;;;6.47;5.80;;;;;;;;;;5022676;28;20207;-73
2022/05/17 00:53:00;;;;;;;8.38;6.10;;;;;;;;;;5024770;28;20229;-72
2022/05/17 00:55:35;;;;;;;8.82;6.55;;;;;;;;;;5021824;28;20187;-72
2022/05/17 00:58:08;;;;;;;7.72;6.47;;;;;;;;;;5024489;28;20194;-72
2022/05/17 01:00:36;;;;;;;8.50;6.00;;;;;;;;;;5023838;28;20179;-73
2022/05/17 01:03:05;;;;;;;6.65;5.95;;;;;;;;;;5024549;28;20241;-73
2022/05/17 01:05:32;;;;;;;7.05;5.75;;;;;;;;;;5023148;28;20179;-72
2022/05/17 01:07:59;;;;;;;8.35;6.47;;;;;;;;;;5024392;28;20206;-72
2022/05/17 01:10:29;;;;;;;6.82;6.13;;;;;;;;;;5023576;28;20256;-73
2022/05/17 01:15:42;;;;;;;7.32;6.13;;;;;;;;;;5023140;28;20301;-73
2022/05/17 01:18:09;;;;;;;7.82;6.90;;;;;;;;;;5026632;28;20222;-73
2022/05/17 01:20:35;;;;;;;10.02;7.72;;;;;;;;;;5026840;28;20614;-73
2022/05/17 01:23:02;;;;;;;10.05;7.57;;;;;;;;;;5027794;28;20187;-72
2022/05/17 01:25:28;;;;;;;9.27;7.55;;;;;;;;;;5026173;28;20190;-72
2022/05/17 01:28:13;;;;;;;11.45;9.00;;;;;;;;;;5027847;28;20199;-74
2022/05/17 01:30:40;;;;;;;11.05;8.65;;;;;;;;;;5026889;28;20210;-73
2022/05/17 01:33:06;;;;;;;10.50;8.90;;;;;;;;;;5027403;28;20189;-73
2022/05/17 01:35:32;;;;;;;9.35;8.38;;;;;;;;;;5026128;28;20189;-72
2022/05/17 01:38:00;;;;;;;12.77;10.48;;;;;;;;;;5027032;28;20710;-72
2022/05/17 01:40:27;;;;;;;11.10;9.90;;;;;;;;;;5026489;28;20194;-72
2022/05/17 01:42:53;;;;;;;12.80;10.30;;;;;;;;;;5027322;28;20198;-72
2022/05/17 01:45:19;;;;;;;10.68;8.88;;;;;;;;;;5025941;28;20175;-73
2022/05/17 01:47:45;;;;;;;12.68;10.02;;;;;;;;;;5027110;28;20589;-72
2022/05/17 01:50:11;;;;;;;13.30;10.02;;;;;;;;;;5026360;28;20260;-72
2022/05/17 01:52:37;;;;;;;16.02;12.45;;;;;;;;;;5026688;28;20183;-73
2022/05/17 01:55:04;;;;;;;14.40;9.68;;;;;;;;;;5025909;28;20634;-72
2022/05/17 01:57:30;;;;;;;16.30;11.80;;;;;;;;;;5026063;28;20205;-72
2022/05/17 01:59:56;;;;;;;17.55;11.48;;;;;;;;;;5026603;28;20190;-72
2022/05/17 02:02:22;;;;;;;16.10;12.13;;;;;;;;;;5026343;28;20191;-73
2022/05/17 02:04:48;;;;;;;13.93;10.85;;;;;;;;;;5026391;28;20550;-72
2022/05/17 02:07:14;;;;;;;16.83;12.18;;;;;;;;;;5025744;28;20207;-73
2022/05/17 02:09:40;;;;;;;19.20;13.05;;;;;;;;;;5025989;28;20222;-73
2022/05/17 02:12:07;;;;;;;17.80;13.32;;;;;;;;;;5026507;28;20576;-73
2022/05/17 02:14:33;;;;;;;15.50;13.25;;;;;;;;;;5025774;28;20639;-73
2022/05/17 02:17:00;;;;;;;17.20;12.93;;;;;;;;;;5025263;28;20198;-72
2022/05/17 02:19:28;;;;;;;20.77;14.30;;;;;;;;;;5026318;28;20558;-73
2022/05/17 02:21:54;;;;;;;17.60;13.27;;;;;;;;;;5025542;28;20209;-72
2022/05/17 02:24:22;;;;;;;15.30;12.60;;;;;;;;;;5026032;28;20175;-73
2022/05/17 02:26:48;;;;;;;15.23;12.65;;;;;;;;;;5025266;28;20207;-73
2022/05/17 02:29:14;;;;;;;18.80;13.38;;;;;;;;;;5018670;28;20215;-73
2022/05/17 02:31:40;;;;;;;17.08;13.70;;;;;;;;;;5025660;28;20183;-72
2022/05/17 02:34:06;;;;;;;17.38;14.55;;;;;;;;;;5025547;28;20309;-72
2022/05/17 02:36:32;;;;;;;18.60;13.48;;;;;;;;;;5024538;28;20357;-73
2022/05/17 02:38:58;;;;;;;18.60;13.38;;;;;;;;;;5025872;28;20295;-73
2022/05/17 02:41:24;;;;;;;18.25;14.13;;;;;;;;;;5019464;28;20731;-73
2022/05/17 02:43:53;;;;;;;20.60;14.52;;;;;;;;;;5026080;28;20249;-73
2022/05/17 02:46:19;;;;;;;20.63;14.40;;;;;;;;;;5024672;28;20187;-73
2022/05/17 02:48:45;;;;;;;20.88;14.27;;;;;;;;;;5025352;28;20245;-72
2022/05/17 02:51:13;;;;;;;18.83;13.38;;;;;;;;;;5025617;28;20198;-73
2022/05/17 02:53:39;;;;;;;18.33;14.48;;;;;;;;;;5025952;28;20181;-72
2022/05/17 02:56:05;;;;;;;18.13;14.32;;;;;;;;;;5024096;28;20616;-73
2022/05/17 02:58:31;;;;;;;21.52;15.43;;;;;;;;;;5025630;28;20207;-73
2022/05/17 03:00:57;;;;;;;17.67;14.50;;;;;;;;;;5024962;28;20177;-73
2022/05/17 03:03:23;;;;;;;19.98;15.43;;;;;;;;;;5025384;28;20215;-73
2022/05/17 03:05:50;;;;;;;20.08;15.15;;;;;;;;;;5024521;28;20223;-72
2022/05/17 03:08:16;;;;;;;16.88;13.80;;;;;;;;;;5025163;28;20203;-73
2022/05/17 03:10:42;;;;;;;21.63;14.40;;;;;;;;;;5024855;28;20219;-73
2022/05/17 03:13:11;;;;;;;20.88;15.27;;;;;;;;;;5025630;28;20175;-73
2022/05/17 03:15:38;;;;;;;20.65;14.00;;;;;;;;;;5024341;28;20658;-72
2022/05/17 03:18:04;;;;;;;22.13;15.98;;;;;;;;;;5025276;28;20198;-73
2022/05/17 03:20:30;;;;;;;19.80;14.85;;;;;;;;;;5024821;28;20182;-72
2022/05/17 03:22:56;;;;;;;18.35;14.95;;;;;;;;;;5025395;28;20651;-73
2022/05/17 03:25:23;;;;;;;17.98;14.05;;;;;;;;;;5024298;28;20218;-73
2022/05/17 03:27:49;;;;;;;19.58;15.43;;;;;;;;;;5025255;28;20546;-73
2022/05/17 03:30:16;;;;;;;21.02;15.48;;;;;;;;;;5024440;28;20206;-74
2022/05/17 03:32:42;;;;;;;22.38;17.02;;;;;;;;;;5024866;28;20191;-71
2022/05/17 03:35:08;;;;;;;22.60;16.45;;;;;;;;;;5024868;28;20179;-75
2022/05/17 03:37:35;;;;;;;21.80;14.75;;;;;;;;;;5025711;28;20238;-71
2022/05/17 03:40:01;;;;;;;22.00;14.00;;;;;;;;;;5024209;28;20186;-72
2022/05/17 03:42:27;;;;;;;20.98;14.80;;;;;;;;;;5025375;28;20190;-74
2022/05/17 03:44:53;;;;;;;26.15;17.67;;;;;;;;;;5024838;28;20186;-72
2022/05/17 03:47:19;;;;;;;22.85;14.73;;;;;;;;;;5023418;28;20202;-70
2022/05/17 03:49:46;;;;;;;24.05;16.65;;;;;;;;;;5025389;28;20284;-71
2022/05/17 03:52:12;;;;;;;21.80;16.17;;;;;;;;;;5025213;28;20187;-71
2022/05/17 03:54:38;;;;;;;24.02;17.70;;;;;;;;;;5024550;28;20209;-71
2022/05/17 03:57:05;;;;;;;22.63;17.70;;;;;;;;;;5024429;28;20203;-71
2022/05/17 03:59:32;;;;;;;23.17;17.35;;;;;;;;;;5025352;28;20197;-71
2022/05/17 04:01:58;;;;;;;21.42;15.75;;;;;;;;;;5024484;28;20175;-71
2022/05/17 04:04:24;;;;;;;21.45;16.15;;;;;;;;;;5023144;28;20587;-71
2022/05/17 04:06:50;;;;;;;21.00;15.68;;;;;;;;;;5022249;28;20210;-71
2022/05/17 04:09:16;;;;;;;21.45;15.48;;;;;;;;;;5023884;28;20281;-70
2022/05/17 04:11:42;;;;;;;19.85;16.90;;;;;;;;;;5024424;28;20245;-73
2022/05/17 04:14:09;;;;;;;22.80;16.45;;;;;;;;;;5024891;28;20186;-71
2022/05/17 04:16:36;;;;;;;21.70;16.20;;;;;;;;;;5023727;28;20206;-72
2022/05/17 04:19:03;;;;;;;20.55;16.20;;;;;;;;;;5023225;28;20186;-72
2022/05/17 04:21:30;;;;;;;19.80;16.05;;;;;;;;;;5024394;28;20696;-70
2022/05/17 04:23:56;;;;;;;19.98;15.05;;;;;;;;;;5024920;28;20722;-71
2022/05/17 04:26:23;;;;;;;18.63;15.05;;;;;;;;;;5023314;28;20257;-70
2022/05/17 04:28:49;;;;;;;16.95;14.60;;;;;;;;;;5024867;28;20332;-71
2022/05/17 04:31:16;;;;;;;22.92;16.38;;;;;;;;;;5024429;28;20202;-70
2022/05/17 04:33:42;;;;;;;17.83;14.25;;;;;;;;;;5024516;28;20597;-71
2022/05/17 04:36:08;;;;;;;19.92;16.08;;;;;;;;;;5023033;28;20187;-72
2022/05/17 04:38:35;;;;;;;19.90;16.33;;;;;;;;;;5024415;28;20253;-73
2022/05/17 04:41:01;;;;;;;20.60;16.15;;;;;;;;;;5022582;28;20190;-70
2022/05/17 04:43:28;;;;;;;17.70;14.38;;;;;;;;;;5023079;28;20532;-72
2022/05/17 04:45:54;;;;;;;18.73;14.43;;;;;;;;;;5023153;28;20179;-71
2022/05/17 04:48:24;;;;;;;20.08;14.82;;;;;;;;;;5024620;28;20633;-70
2022/05/17 04:50:50;;;;;;;16.20;14.25;;;;;;;;;;5023853;28;20206;-70
2022/05/17 04:53:16;;;;;;;16.08;14.25;;;;;;;;;;5027555;28;20240;-72
2022/05/17 04:55:42;;;;;;;18.85;13.68;;;;;;;;;;5027102;28;20195;-73
2022/05/17 04:58:08;;;;;;;16.45;13.90;;;;;;;;;;5027989;28;20674;-74
2022/05/17 05:00:34;;;;;;;15.23;13.35;;;;;;;;;;5025366;28;20194;-71
2022/05/17 05:03:01;;;;;;;15.23;13.02;;;;;;;;;;5026619;28;20515;-72
2022/05/17 05:05:27;;;;;;;15.70;13.52;;;;;;;;;;5026173;28;20618;-73
2022/05/17 05:07:53;;;;;;;17.75;12.93;;;;;;;;;;5027508;28;20206;-70
2022/05/17 05:10:20;;;;;;;16.50;13.75;;;;;;;;;;5026625;28;20724;-70
2022/05/17 05:12:46;;;;;;;16.50;13.02;;;;;;;;;;5027211;28;20183;-71
2022/05/17 05:15:13;;;;;;;15.80;12.13;;;;;;;;;;5026332;28;20182;-71
2022/05/17 05:17:40;;;;;;;14.95;12.52;;;;;;;;;;5026761;28;20210;-71
2022/05/17 05:20:07;;;;;;;15.73;13.65;;;;;;;;;;5026783;28;20197;-70
2022/05/17 05:22:34;;;;;;;17.55;12.80;;;;;;;;;;5027645;28;20187;-70
2022/05/17 05:25:00;;;;;;;16.35;12.95;;;;;;;;;;5026388;28;20183;-71
2022/05/17 05:27:31;;;;;;;16.52;13.07;;;;;;;;;;5026815;28;20244;-71
2022/05/17 05:29:57;;;;;;;15.93;12.27;;;;;;;;;;5026754;28;20241;-72
2022/05/17 05:32:23;;;;;;;14.48;12.10;;;;;;;;;;5026311;28;20266;-72
2022/05/17 05:34:49;;;;;;;16.92;13.07;;;;;;;;;;5026648;28;20690;-73
2022/05/17 05:37:16;;;;;;;14.82;11.50;;;;;;;;;;5026097;28;20670;-72
2022/05/17 05:39:42;;;;;;;12.85;9.90;;;;;;;;;;5026368;28;20316;-71
2022/05/17 05:42:08;;;;;;;14.70;11.20;;;;;;;;;;5026426;28;20261;-71
2022/05/17 05:44:35;;;;;;;13.68;11.10;;;;;;;;;;5026274;28;20191;-71
2022/05/17 05:47:01;;;;;;;13.95;11.38;;;;;;;;;;5026026;28;20209;-71
2022/05/17 05:49:27;;;;;;;13.80;10.07;;;;;;;;;;5026692;28;20232;-71
2022/05/17 05:51:53;;;;;;;13.88;10.57;;;;;;;;;;5026540;28;20551;-72
2022/05/17 05:54:19;;;;;;;12.85;10.23;;;;;;;;;;5026746;28;20183;-73
2022/05/17 05:56:45;;;;;;;14.88;10.80;;;;;;;;;;5025257;28;20289;-72
2022/05/17 05:59:11;;;;;;;11.75;10.00;;;;;;;;;;5026532;28;20232;-71
2022/05/17 06:01:39;;;;;;;14.10;10.52;;;;;;;;;;5026600;28;20711;-71
2022/05/17 06:04:05;;;;;;;14.52;9.98;;;;;;;;;;5025969;28;20665;-70
2022/05/17 06:06:31;;;;;;;12.68;10.05;;;;;;;;;;5024987;28;20214;-72
2022/05/17 06:08:57;;;;;;;15.10;10.05;;;;;;;;;;5026521;28;20195;-72
2022/05/17 06:11:23;;;;;;;15.48;10.10;;;;;;;;;;5025820;28;20241;-71
2022/05/17 06:13:50;;;;;;;15.23;10.68;;;;;;;;;;5026574;28;20202;-71
2022/05/17 06:16:16;;;;;;;13.50;9.50;;;;;;;;;;5024959;28;20171;-73
2022/05/17 06:18:42;;;;;;;10.82;9.02;;;;;;;;;;5026127;28;20214;-72
2022/05/17 06:21:09;;;;;;;12.02;9.32;;;;;;;;;;5025936;28;20202;-72
2022/05/17 06:23:35;;;;;;;12.77;8.80;;;;;;;;;;5026107;28;20187;-71
2022/05/17 06:26:01;;;;;;;14.13;9.40;;;;;;;;;;5025116;28;20716;-71
2022/05/17 06:28:27;;;;;;;12.60;9.43;;;;;;;;;;5026295;28;20207;-72
2022/05/17 06:30:54;;;;;;;12.02;8.88;;;;;;;;;;5025875;28;20265;-73
2022/05/17 06:33:20;;;;;;;11.05;8.15;;;;;;;;;;5027119;28;20179;-72
2022/05/17 06:35:50;;;;;;;9.95;8.35;;;;;;;;;;5023740;28;20186;-71
2022/05/17 06:38:16;;;;;;;11.55;7.57;;;;;;;;;;5024840;28;20678;-71
2022/05/17 06:40:42;;;;;;;12.00;8.80;;;;;;;;;;5026232;28;20197;-70
2022/05/17 06:43:09;;;;;;;11.27;7.32;;;;;;;;;;5026417;28;20183;-72
2022/05/17 06:45:35;;;;;;;12.45;7.38;;;;;;;;;;5024960;28;20182;-71
2022/05/17 06:48:01;;;;;;;11.32;7.40;;;;;;;;;;5026543;28;20570;-71
2022/05/17 06:50:28;;;;;;;12.40;7.55;;;;;;;;;;5024036;28;20206;-70
2022/05/17 06:52:54;;;;;;;10.55;8.18;;;;;;;;;;5026312;28;20211;-72
2022/05/17 06:55:22;;;;;;;10.38;7.07;;;;;;;;;;5024996;28;20179;-71
2022/05/17 06:57:50;;;;;;;11.45;8.13;;;;;;;;;;5024289;28;20259;-71
2022/05/17 07:00:17;;;;;;;12.63;8.40;;;;;;;;;;5025637;28;20185;-71
2022/05/17 07:02:43;;;;;;;12.23;8.15;;;;;;;;;;5026150;28;20252;-71
2022/05/17 07:05:09;;;;;;;11.77;7.90;;;;;;;;;;5024786;28;20204;-71
2022/05/17 07:07:37;;;;;;;12.60;7.78;;;;;;;;;;5025996;28;20210;-71
2022/05/17 07:15:33;;;;;;;12.60;7.63;;;;;;;;;;5024296;28;20198;-73
2022/05/17 07:18:01;;;;;;;10.35;7.82;;;;;;;;;;5025360;28;20198;-71
2022/05/17 07:20:28;;;;;;;10.38;7.75;;;;;;;;;;5024702;28;20175;-72
2022/05/17 07:22:54;;;;;;;13.82;8.30;;;;;;;;;;5025654;28;20183;-71
2022/05/17 07:25:20;;;;;;;11.05;7.55;;;;;;;;;;5024306;28;20673;-73
2022/05/17 07:27:47;;;;;;;11.80;7.68;;;;;;;;;;5025196;28;20218;-72
2022/05/17 07:30:13;;;;;;;10.35;7.72;;;;;;;;;;5024803;28;20203;-71
2022/05/17 07:32:39;;;;;;;14.60;8.57;;;;;;;;;;5025171;28;20193;-71
2022/05/17 07:35:06;;;;;;;14.30;10.18;;;;;;;;;;5024314;28;20228;-72
2022/05/17 07:37:33;;;;;;;12.43;9.35;;;;;;;;;;5025233;28;20269;-73
2022/05/17 07:39:59;;;;;;;13.40;9.35;;;;;;;;;;5024822;28;20182;-72
2022/05/17 07:42:25;;;;;;;10.90;8.23;;;;;;;;;;5023846;28;20187;-73
2022/05/17 07:44:51;;;;;;;10.02;7.80;;;;;;;;;;5024391;28;20186;-70
2022/05/17 07:47:18;;;;;;;11.02;8.75;;;;;;;;;;5024205;28;20693;-71
2022/05/17 07:49:44;;;;;;;12.68;8.88;;;;;;;;;;5023775;28;20552;-71
2022/05/17 07:52:11;;;;;;;12.43;9.05;;;;;;;;;;5023372;28;20186;-72
2022/05/17 07:54:37;;;;;;;10.77;8.57;;;;;;;;;;5021067;28;20182;-71
2022/05/17 07:57:06;;;;;;;14.02;8.75;;;;;;;;;;5023924;28;20401;-72
2022/05/17 07:59:32;;;;;;;10.18;8.02;;;;;;;;;;5024197;28;20193;-72
2022/05/17 08:01:59;;;;;;;12.48;8.50;;;;;;;;;;5024175;28;20186;-72
2022/05/17 08:04:25;;;;;;;11.23;8.38;;;;;;;;;;5024117;28;20980;-72
2022/05/17 08:06:51;;;;;;;10.05;8.13;;;;;;;;;;5023310;28;20726;-72
2022/05/17 08:09:18;;;;;;;9.68;7.65;;;;;;;;;;5024341;28;20202;-72
2022/05/17 08:11:44;;;;;;;8.45;7.22;;;;;;;;;;5023990;28;20175;-73
2022/05/17 08:14:11;;;;;;;10.65;8.40;;;;;;;;;;5024032;28;20266;-73
2022/05/17 08:16:37;;;;;;;11.38;7.35;;;;;;;;;;5023441;28;20182;-72
2022/05/17 08:19:03;;;;;;;11.75;7.78;;;;;;;;;;5024022;28;20541;-72
2022/05/17 08:21:30;;;;;;;9.13;7.63;;;;;;;;;;5023958;28;20273;-73
2022/05/17 08:23:56;;;;;;;10.93;7.93;;;;;;;;;;5024813;28;20179;-72
2022/05/17 08:29:06;;;;;;;10.85;7.35;;;;;;;;;;5028336;28;20193;-73
2022/05/17 08:31:33;;;;;;;9.27;6.78;;;;;;;;;;5027753;28;20234;-72
2022/05/17 08:33:59;;;;;;;11.80;6.97;;;;;;;;;;5028400;28;20178;-72
2022/05/17 08:36:25;;;;;;;11.95;7.32;;;;;;;;;;5026939;28;20178;-72
2022/05/17 08:38:51;;;;;;;9.60;6.97;;;;;;;;;;5028462;28;20174;-72
2022/05/17 08:41:38;;;;;;;8.23;5.80;;;;;;;;;;5027320;28;20269;-72
2022/05/17 08:44:08;;;;;;;9.82;6.80;;;;;;;;;;5027807;28;20178;-73
2022/05/17 08:46:35;;;;;;;11.30;7.57;;;;;;;;;;5026924;28;20555;-72
2022/05/17 08:49:10;;;;;;;7.90;6.18;;;;;;;;;;5027696;28;20553;-73
2022/05/17 08:51:44;;;;;;;8.68;5.70;;;;;;;;;;5027213;28;20228;-73
2022/05/17 08:54:13;;;;;;;8.30;5.55;;;;;;;;;;5027608;28;20178;-74
2022/05/17 08:56:43;;;;;;;8.50;5.97;;;;;;;;;;5026876;28;20202;-72
2022/05/17 08:59:13;;;;;;;9.00;5.95;;;;;;;;;;5028121;28;20257;-74
2022/05/17 09:01:44;;;;;;;8.45;5.85;;;;;;;;;;5027615;28;20526;-73
2022/05/17 09:04:21;;;;;;;9.43;5.95;;;;;;;;;;5027301;28;20175;-75
2022/05/17 09:06:47;;;;;;;9.38;6.15;;;;;;;;;;5026761;28;20226;-72
2022/05/17 09:09:22;;;;;;;9.63;6.10;;;;;;;;;;5027272;28;20273;-72
2022/05/17 09:11:48;;;;;;;7.43;5.40;;;;;;;;;;5027447;28;20325;-74
2022/05/17 09:14:23;;;;;;;7.05;4.32;;;;;;;;;;5020216;28;20246;-73
2022/05/17 09:17:11;;;;;;;6.95;4.47;;;;;;;;;;5026256;28;20198;-72
2022/05/17 09:19:37;;;;;;;4.22;3.65;;;;;;;;;;5027247;28;20186;-73
2022/05/17 09:22:03;;;;;;;7.45;4.43;;;;;;;;;;5027402;28;20630;-73
2022/05/17 09:24:40;;;;;;;6.00;4.18;;;;;;;;;;5022055;28;20183;-72
2022/05/17 09:27:08;;;;;;;9.13;4.97;;;;;;;;;;5026302;28;20205;-74
2022/05/17 09:29:39;;;;;;;5.35;4.28;;;;;;;;;;5026530;28;20559;-72
2022/05/17 09:32:07;;;;;;;8.00;3.83;;;;;;;;;;5027223;28;20175;-72
2022/05/17 09:34:37;;;;;;;8.13;3.90;;;;;;;;;;5026697;28;20183;-73
2022/05/17 09:37:08;;;;;;;7.57;3.95;;;;;;;;;;5025500;28;20252;-72
2022/05/17 09:39:35;;;;;;;4.25;3.30;;;;;;;;;;5027032;28;20179;-73
2022/05/17 09:42:02;;;;;;;4.88;3.30;;;;;;;;;;5026909;28;20171;-73
2022/05/17 09:44:30;;;;;;;5.47;3.67;;;;;;;;;;5026745;28;20181;-72
2022/05/17 09:46:58;;;;;;;4.55;3.05;;;;;;;;;;5026363;28;20290;-72
2022/05/17 09:52:46;;;;;;;6.82;2.67;;;;;;;;;;5027161;28;20273;-73
2022/05/17 09:55:23;;;;;;;3.92;2.70;;;;;;;;;;5025864;28;20179;-73
2022/05/17 09:57:53;;;;;;;4.50;2.58;;;;;;;;;;5026987;28;20203;-73
2022/05/17 10:00:24;;;;;;;3.42;2.35;;;;;;;;;;5026531;28;20183;-73
2022/05/17 10:03:03;;;;;;;3.63;2.10;;;;;;;;;;5026985;28;20198;-73
2022/05/17 10:05:43;;;;;;;3.83;2.30;;;;;;;;;;5024122;28;21263;-73
2022/05/17 10:08:15;;;;;;;4.15;2.45;;;;;;;;;;5026942;28;20230;-72
2022/05/17 10:10:48;;;;;;;3.95;1.98;;;;;;;;;;5025053;28;20237;-73
2022/05/17 10:13:24;;;;;;;3.30;2.03;;;;;;;;;;5026929;28;20541;-73
2022/05/17 10:15:52;;;;;;;3.38;2.25;;;;;;;;;;5025614;28;20205;-74
2022/05/17 10:18:29;;;;;;;4.45;2.30;;;;;;;;;;5026727;28;20205;-73
2022/05/17 10:20:58;;;;;;;2.65;2.05;;;;;;;;;;5025481;28;20190;-73
2022/05/17 10:23:24;;;;;;;4.78;2.00;;;;;;;;;;5025486;28;20189;-73
2022/05/17 10:25:56;;;;;;;5.43;2.60;;;;;;;;;;5024737;28;20218;-73
2022/05/17 10:28:24;;;;;;;4.57;2.20;;;;;;;;;;5026288;28;20671;-73
2022/05/17 10:31:03;;;;;;;2.78;1.70;;;;;;;;;;5025664;28;20296;-73
2022/05/17 10:33:29;;;;;;;4.10;2.03;;;;;;;;;;5026301;28;20237;-74
2022/05/17 10:36:06;;;;;;;7.95;1.90;;;;;;;;;;5024693;28;20187;-75
2022/05/17 10:38:39;;;;;;;4.72;1.73;;;;;;;;;;5026459;28;20538;-75
2022/05/17 10:41:07;;;;;;;3.05;1.60;;;;;;;;;;5025715;28;20179;-74
2022/05/17 10:43:36;;;;;;;6.68;1.90;;;;;;;;;;5026714;28;20652;-74
2022/05/17 10:46:05;;;;;;;5.35;2.22;;;;;;;;;;5025420;28;20194;-73
2022/05/17 10:48:48;;;;;;;4.30;1.48;;;;;;;;;;5026396;28;20285;-73
2022/05/17 10:51:14;;;;;;;2.35;1.33;;;;;;;;;;5024988;28;20206;-74
2022/05/17 10:53:40;;;;;;;3.40;1.52;;;;;;;;;;5026587;28;20175;-73
2022/05/17 10:56:19;;;;;;;4.50;1.70;;;;;;;;;;5025149;28;20167;-72
2022/05/17 10:58:51;;;;;;;3.35;1.48;;;;;;;;;;5026331;28;20670;-74
2022/05/17 11:01:22;;;;;;;4.53;1.30;;;;;;;;;;5025941;28;20270;-74
2022/05/17 11:04:05;;;;;;;3.97;1.20;;;;;;;;;;5026517;28;20197;-73
2022/05/17 11:06:35;;;;;;;2.13;1.40;;;;;;;;;;5024761;28;20218;-73
2022/05/17 11:09:01;;;;;;;3.08;1.30;;;;;;;;;;5025802;28;20226;-73
2022/05/17 11:11:32;;;;;;;4.68;1.77;;;;;;;;;;5025286;28;20242;-73
2022/05/17 11:14:08;;;;;;;3.58;1.88;;;;;;;;;;5023205;28;20276;-75
2022/05/17 11:16:58;;;;;;;6.10;1.98;;;;;;;;;;5023602;28;20186;-75
2022/05/17 11:19:28;;;;;;;2.47;1.42;;;;;;;;;;5020016;28;20191;-73
2022/05/17 11:22:06;;;;;;;4.72;1.70;;;;;;;;;;5025747;28;20178;-73
2022/05/17 11:24:52;;;;;;;2.17;1.50;;;;;;;;;;5026208;28;20183;-75
2022/05/17 11:27:21;;;;;;;2.30;1.55;;;;;;;;;;5024862;28;20207;-73
2022/05/17 11:30:02;;;;;;;4.07;1.60;;;;;;;;;;5025370;28;20203;-74
2022/05/17 11:32:30;;;;;;;2.83;1.20;;;;;;;;;;5025205;28;20181;-73
2022/05/17 11:35:02;;;;;;;3.17;1.55;;;;;;;;;;5025046;28;20182;-73
2022/05/17 11:37:34;;;;;;;2.83;1.30;;;;;;;;;;5024760;28;20195;-72
2022/05/17 11:40:01;;;;;;;2.78;1.48;;;;;;;;;;5024770;28;20198;-72
2022/05/17 11:43:40;;;;;;;4.00;1.35;;;;;;;;;;5024020;28;20179;-73
2022/05/17 11:45:40;;;;;;;4.47;1.40;;;;;;;;;;5024240;28;20617;-73
2022/05/17 11:48:14;;;;;;;2.97;1.17;;;;;;;;;;5025277;28;20677;-75
2022/05/17 11:50:42;;;;;;;5.97;1.70;;;;;;;;;;5024670;28;20204;-73
2022/05/17 11:53:23;;;;;;;2.55;1.27;;;;;;;;;;5024190;28;20182;-72
2022/05/17 11:56:08;;;;;;;3.33;1.15;;;;;;;;;;5024400;28;20183;-72
2022/05/17 11:58:34;;;;;;;2.28;1.05;;;;;;;;;;5025237;28;20209;-74
2022/05/17 12:01:01;;;;;;;3.70;1.30;;;;;;;;;;5024155;28;20179;-75
2022/05/17 12:03:47;;;;;;;2.65;1.00;;;;;;;;;;5025745;28;20182;-74
2022/05/17 12:06:28;;;;;;;3.03;0.80;;;;;;;;;;5024180;28;20178;-76
2022/05/17 12:08:55;;;;;;;2.17;0.82;;;;;;;;;;5025162;28;20206;-73
2022/05/17 12:11:42;;;;;;;1.63;0.90;;;;;;;;;;5024666;28;20328;-71
2022/05/17 12:14:31;;;;;;;1.75;0.68;;;;;;;;;;5025336;28;20520;-72
2022/05/17 12:17:08;;;;;;;1.95;0.63;;;;;;;;;;5004767;28;20263;-76
2022/05/17 12:19:53;;;;;;;2.63;1.10;;;;;;;;;;5025576;28;20178;-77
2022/05/17 12:22:24;;;;;;;2.05;0.70;;;;;;;;;;5025711;28;20183;-79
2022/05/17 12:24:59;;;;;;;1.70;0.60;;;;;;;;;;5025374;28;20214;-79
2022/05/17 12:27:35;;;;;;;2.53;0.93;;;;;;;;;;5025470;28;20197;-76
2022/05/17 12:32:49;;;;;;;3.38;0.95;;;;;;;;;;5025690;28;20190;-76
2022/05/17 12:35:22;;;;;;;1.45;0.73;;;;;;;;;;5024710;28;20187;-77
2022/05/17 12:37:48;;;;;;;1.73;1.17;;;;;;;;;;5025760;28;20198;-78
2022/05/17 12:43:07;;;;;;;1.85;0.85;;;;;;;;;;5026029;28;20271;-77
2022/05/17 12:45:36;;;;;;;2.55;0.80;;;;;;;;;;5024946;28;20257;-77
2022/05/17 12:48:10;;;;;;;1.15;0.60;;;;;;;;;;5025975;28;20210;-77
2022/05/17 12:50:44;;;;;;;3.72;1.00;;;;;;;;;;5025515;28;20194;-78
2022/05/17 12:53:18;;;;;;;1.20;0.95;;;;;;;;;;5025823;28;20197;-79
2022/05/17 12:55:59;;;;;;;2.13;0.90;;;;;;;;;;5024670;28;20179;-77
2022/05/17 12:58:25;;;;;;;1.25;0.60;;;;;;;;;;5025536;28;20550;-77
2022/05/17 13:00:55;;;;;;;1.38;0.65;;;;;;;;;;5025327;28;20179;-75
2022/05/17 13:03:23;;;;;;;2.05;0.80;;;;;;;;;;5025794;28;20179;-74
2022/05/17 13:05:51;;;;;;;1.33;0.80;;;;;;;;;;5024144;28;20206;-78
2022/05/17 13:08:37;;;;;;;3.78;1.00;;;;;;;;;;5025232;28;20195;-77
2022/05/17 13:11:07;;;;;;;1.38;0.77;;;;;;;;;;5024858;28;20682;-76
2022/05/17 13:13:34;;;;;;;2.97;1.10;;;;;;;;;;5027423;28;20183;-76
2022/05/17 13:16:10;;;;;;;1.75;1.13;;;;;;;;;;5028252;28;20244;-76
2022/05/17 13:18:40;;;;;;;3.05;0.88;;;;;;;;;;5029052;28;20199;-75
2022/05/17 13:21:10;;;;;;;3.33;0.98;;;;;;;;;;5028266;28;20183;-77
2022/05/17 13:23:36;;;;;;;0.90;0.80;;;;;;;;;;5028007;28;20582;-77
2022/05/17 13:26:06;;;;;;;1.95;0.90;;;;;;;;;;5026947;28;20614;-78
2022/05/17 13:28:33;;;;;;;1.70;1.10;;;;;;;;;;5027492;28;20206;-77
2022/05/17 13:31:10;;;;;;;1.40;0.80;;;;;;;;;;5024620;28;20256;-77
2022/05/17 13:33:38;;;;;;;2.30;0.95;;;;;;;;;;5027321;28;20205;-75
2022/05/17 13:36:10;;;;;;;1.75;1.08;;;;;;;;;;5026679;28;20190;-76
2022/05/17 13:38:38;;;;;;;1.67;1.02;;;;;;;;;;5028875;28;20199;-76
2022/05/17 13:41:14;;;;;;;2.58;1.20;;;;;;;;;;5028170;28;20226;-78
2022/05/17 13:43:41;;;;;;;2.50;0.80;;;;;;;;;;5028768;28;20187;-77
2022/05/17 13:46:07;;;;;;;1.27;0.77;;;;;;;;;;5026125;28;20226;-76
2022/05/17 13:48:34;;;;;;;3.40;1.10;;;;;;;;;;5028592;28;20211;-77
2022/05/17 13:51:01;;;;;;;2.65;0.90;;;;;;;;;;5028397;28;20764;-78
2022/05/17 13:53:32;;;;;;;1.30;0.80;;;;;;;;;;5028416;28;20182;-77
2022/05/17 13:55:59;;;;;;;1.08;0.75;;;;;;;;;;5025789;28;20167;-78
2022/05/17 13:58:25;;;;;;;1.83;1.20;;;;;;;;;;5026557;28;20199;-77
2022/05/17 14:01:12;;;;;;;2.28;1.10;;;;;;;;;;5027469;28;20654;-77
2022/05/17 14:03:38;;;;;;;2.83;1.00;;;;;;;;;;5028046;28;20182;-78
2022/05/17 14:06:07;;;;;;;3.85;1.08;;;;;;;;;;5027042;28;20189;-78
2022/05/17 14:14:08;;;;;;;1.35;0.93;;;;;;;;;;5027108;28;20198;-79
2022/05/17 14:16:34;;;;;;;2.45;1.00;;;;;;;;;;5026835;28;20266;-78
2022/05/17 14:19:00;;;;;;;5.60;1.25;;;;;;;;;;5028009;28;20646;-78
2022/05/17 14:21:28;;;;;;;1.80;1.00;;;;;;;;;;5027646;28;20186;-79
2022/05/17 14:23:54;;;;;;;2.03;1.00;;;;;;;;;;5028022;28;21070;-78
2022/05/17 14:26:21;;;;;;;3.45;2.80;;;;;;;;;;5026960;28;20179;-79
2022/05/17 14:28:47;;;;;;;3.88;3.50;;;;;;;;;;5028164;28;20194;-79
2022/05/17 14:31:16;;;;;;;4.78;4.20;;;;;;;;;;5024605;28;20381;-76
2022/05/17 14:33:42;;;;;;;4.72;3.90;;;;;;;;;;5025351;28;20584;-77
2022/05/17 14:36:13;;;;;;;3.70;3.35;;;;;;;;;;5024716;28;20186;-77
2022/05/17 14:38:39;;;;;;;5.40;4.22;;;;;;;;;;5027447;28;20213;-76
2022/05/17 14:41:05;;;;;;;4.15;3.80;;;;;;;;;;5026101;28;20588;-81
2022/05/17 14:43:31;;;;;;;6.03;4.03;;;;;;;;;;5026564;28;20228;-81
2022/05/17 14:45:58;;;;;;;5.57;4.57;;;;;;;;;;5025869;28;20179;-78
2022/05/17 14:48:26;;;;;;;5.05;4.45;;;;;;;;;;5026926;28;20206;-78
2022/05/17 14:50:53;;;;;;;4.70;4.30;;;;;;;;;;5027181;28;20498;-79
2022/05/17 14:53:19;;;;;;;5.65;4.70;;;;;;;;;;5027168;28;20187;-81
2022/05/17 14:55:45;;;;;;;5.38;4.57;;;;;;;;;;5026524;28;20238;-79
2022/05/17 14:58:12;;;;;;;5.88;4.88;;;;;;;;;;5026721;28;20210;-81
2022/05/17 15:00:39;;;;;;;5.05;4.55;;;;;;;;;;5027008;28;20179;-78
2022/05/17 15:03:08;;;;;;;5.40;4.32;;;;;;;;;;5027521;28;20171;-78
2022/05/17 15:05:35;;;;;;;5.43;4.40;;;;;;;;;;5026784;28;20337;-76
2022/05/17 15:08:02;;;;;;;6.63;4.07;;;;;;;;;;5027177;28;20206;-77